createdAt,value
2022-12-08T00:01:55.391Z,41.50
2022-12-08T00:04:58.860Z,42.75
2022-12-08T00:08:08.297Z,42.13
2022-12-08T00:10:57.923Z,44.08
2022-12-08T00:13:48.266Z,43.90
2022-12-08T00:16:38.967Z,38.20
2022-12-08T00:19:29.625Z,46.42
2022-12-08T00:22:18.991Z,41.03
2022-12-08T00:25:09.290Z,39.97
2022-12-08T00:27:58.667Z,36.25
2022-12-08T00:30:48.340Z,35.85
2022-12-08T00:33:39.562Z,33.63
2022-12-08T00:36:29.645Z,36.00
2022-12-08T00:39:19.531Z,36.33
2022-12-08T00:42:15.532Z,42.60
2022-12-08T00:45:05.355Z,44.83
2022-12-08T00:47:54.665Z,41.30
2022-12-08T00:50:45.317Z,42.58
2022-12-08T00:53:34.803Z,37.28
2022-12-08T00:56:24.231Z,38.83
2022-12-08T00:59:13.729Z,33.95
2022-12-08T01:02:06.078Z,36.65
2022-12-08T01:04:55.403Z,38.55
2022-12-08T01:07:46.103Z,35.85
2022-12-08T01:10:37.299Z,33.15
2022-12-08T01:13:26.802Z,36.97
2022-12-08T01:16:23.235Z,46.25
2022-12-08T01:19:14.703Z,83.30
2022-12-08T01:22:04.001Z,44.53
2022-12-08T01:24:54.782Z,46.53
2022-12-08T01:27:44.171Z,49.88
2022-12-08T01:30:33.678Z,68.10
2022-12-08T01:33:23.027Z,33.40
2022-12-08T01:36:22.513Z,37.30
2022-12-08T01:39:18.357Z,41.72
2022-12-08T01:42:22.373Z,49.75
2022-12-08T01:45:22.679Z,47.83
2022-12-08T01:48:18.019Z,79.65
2022-12-08T01:51:08.158Z,46.45
2022-12-08T01:53:57.734Z,49.72
2022-12-08T01:56:56.918Z,45.75
2022-12-08T01:59:55.369Z,47.10
2022-12-08T02:02:54.921Z,44.70
2022-12-08T02:05:45.224Z,49.45
2022-12-08T02:08:36.366Z,45.35
2022-12-08T02:11:25.670Z,61.33
2022-12-08T02:14:16.038Z,51.33
2022-12-08T02:17:17.489Z,42.78
2022-12-08T02:20:41.694Z,51.05
2022-12-08T02:23:43.347Z,39.17
2022-12-08T02:27:32.486Z,36.97
2022-12-08T02:30:26.123Z,35.35
2022-12-08T02:34:00.030Z,39.42
2022-12-08T02:37:00.799Z,30.83
2022-12-08T02:40:01.444Z,35.92
2022-12-08T02:42:59.737Z,40.95
2022-12-08T02:45:55.420Z,48.58
2022-12-08T02:48:46.515Z,43.08
2022-12-08T02:51:35.877Z,43.00
2022-12-08T02:54:25.268Z,43.40
2022-12-08T02:57:33.300Z,49.97
2022-12-08T03:00:26.359Z,44.60
2022-12-08T03:03:25.380Z,49.47
2022-12-08T03:06:30.796Z,36.17
2022-12-08T03:09:30.405Z,85.45
2022-12-08T03:12:27.992Z,49.42
2022-12-08T03:15:21.710Z,46.58
2022-12-08T03:18:15.463Z,36.63
2022-12-08T03:21:07.514Z,35.80
2022-12-08T03:23:58.946Z,36.15
2022-12-08T03:26:53.356Z,33.58
2022-12-08T03:29:42.881Z,40.03
2022-12-08T03:32:38.922Z,33.65
2022-12-08T03:35:32.400Z,34.45
2022-12-08T03:38:21.795Z,29.13
2022-12-08T03:41:22.109Z,33.67
2022-12-08T03:44:11.446Z,29.08
2022-12-08T03:47:00.788Z,31.67
2022-12-08T03:49:50.121Z,30.63
2022-12-08T03:52:39.518Z,30.08
2022-12-08T03:55:28.863Z,32.47
2022-12-08T03:58:19.546Z,46.70
2022-12-08T04:01:08.983Z,51.33
2022-12-08T04:03:58.388Z,106.68
2022-12-08T04:06:47.669Z,31.17
2022-12-08T04:09:37.002Z,29.85
2022-12-08T04:12:26.360Z,35.65
2022-12-08T04:15:17.340Z,63.50
2022-12-08T04:18:07.155Z,33.97
2022-12-08T04:20:56.472Z,28.92
2022-12-08T04:23:46.587Z,27.77
2022-12-08T04:26:35.975Z,37.40
2022-12-08T04:29:25.280Z,47.80
2022-12-08T04:32:15.972Z,30.77
2022-12-08T04:35:05.784Z,39.47
2022-12-08T04:37:55.132Z,33.72
2022-12-08T04:40:44.735Z,28.38
2022-12-08T04:43:34.376Z,28.38
2022-12-08T04:46:23.682Z,66.55
2022-12-08T04:49:14.419Z,34.22
2022-12-08T04:52:03.699Z,69.55
2022-12-08T04:54:53.028Z,66.43
2022-12-08T04:57:42.373Z,42.30
2022-12-08T05:00:31.627Z,39.47
2022-12-08T05:03:26.864Z,29.77
2022-12-08T05:06:19.266Z,65.40
2022-12-08T05:09:08.683Z,40.83
2022-12-08T05:11:58.025Z,32.55
2022-12-08T05:14:48.935Z,40.22
2022-12-08T05:17:38.203Z,23.98
2022-12-08T05:20:29.343Z,56.00
2022-12-08T05:23:20.092Z,23.30
2022-12-08T05:26:09.459Z,23.02
2022-12-08T05:28:59.036Z,23.38
2022-12-08T05:31:48.435Z,22.33
2022-12-08T05:34:38.061Z,54.67
2022-12-08T05:37:27.688Z,28.45
2022-12-08T05:40:18.633Z,26.23
2022-12-08T05:43:08.247Z,27.63
2022-12-08T05:45:57.789Z,32.55
2022-12-08T05:48:47.123Z,51.75
2022-12-08T05:51:36.464Z,27.08
2022-12-08T05:54:25.735Z,27.50
2022-12-08T05:57:16.410Z,50.35
2022-12-08T06:00:07.618Z,32.75
2022-12-08T06:03:01.593Z,23.75
2022-12-08T06:05:51.032Z,44.10
2022-12-08T06:08:40.306Z,26.80
2022-12-08T06:11:32.206Z,27.90
2022-12-08T06:14:23.010Z,39.67
2022-12-08T06:17:12.333Z,26.13
2022-12-08T06:20:02.030Z,25.40
2022-12-08T06:22:51.986Z,25.83
2022-12-08T06:25:41.248Z,47.63
2022-12-08T06:28:31.556Z,28.90
2022-12-08T06:31:25.801Z,39.50
2022-12-08T06:34:15.177Z,26.88
2022-12-08T06:37:04.496Z,28.58
2022-12-08T06:39:53.885Z,49.88
2022-12-08T06:42:45.128Z,27.67
2022-12-08T06:45:34.445Z,33.03
2022-12-08T06:48:25.341Z,26.67
2022-12-08T06:51:17.145Z,33.10
2022-12-08T06:54:06.718Z,34.75
2022-12-08T06:56:56.037Z,45.72
2022-12-08T06:59:45.909Z,49.83
2022-12-08T07:02:35.311Z,40.17
2022-12-08T07:05:26.156Z,29.20
2022-12-08T07:08:15.903Z,26.13
2022-12-08T07:11:09.675Z,25.60
2022-12-08T07:13:59.160Z,26.05
2022-12-08T07:16:48.798Z,26.42
2022-12-08T07:19:38.317Z,69.57
2022-12-08T07:22:29.306Z,56.03
2022-12-08T07:25:19.000Z,35.75
2022-12-08T07:28:12.602Z,32.15
2022-12-08T07:31:02.063Z,28.77
2022-12-08T07:33:51.783Z,28.65
2022-12-08T07:36:41.481Z,41.15
2022-12-08T07:39:32.566Z,31.52
2022-12-08T07:42:22.068Z,25.77
2022-12-08T07:45:12.512Z,24.45
2022-12-08T07:48:01.789Z,23.30
2022-12-08T07:50:51.187Z,31.15
2022-12-08T07:53:42.806Z,27.60
2022-12-08T07:56:34.959Z,25.70
2022-12-08T07:59:24.568Z,29.33
2022-12-08T08:02:24.675Z,24.60
2022-12-08T08:05:15.528Z,26.75
2022-12-08T08:08:05.317Z,27.10
2022-12-08T08:10:54.754Z,23.42
2022-12-08T08:13:46.947Z,27.75
2022-12-08T08:16:38.591Z,22.45
2022-12-08T08:19:29.881Z,24.60
2022-12-08T08:22:19.166Z,23.20
2022-12-08T08:25:10.773Z,29.88
2022-12-08T08:28:00.191Z,29.55
2022-12-08T08:30:51.290Z,33.13
2022-12-08T08:33:40.683Z,26.88
2022-12-08T08:36:30.081Z,29.40
2022-12-08T08:39:20.905Z,29.45
2022-12-08T08:42:11.419Z,30.60
2022-12-08T08:45:00.956Z,29.40
2022-12-08T08:47:51.830Z,30.83
2022-12-08T08:50:42.017Z,31.55
2022-12-08T08:53:31.369Z,50.33
2022-12-08T08:56:21.549Z,36.00
2022-12-08T08:59:12.487Z,35.42
2022-12-08T09:02:01.856Z,47.72
2022-12-08T09:04:52.985Z,42.08
2022-12-08T09:07:42.413Z,40.20
2022-12-08T09:10:31.760Z,50.17
2022-12-08T09:13:22.449Z,38.33
2022-12-08T09:16:13.774Z,44.15
2022-12-08T09:19:03.040Z,44.30
2022-12-08T09:21:55.261Z,49.53
2022-12-08T09:24:44.983Z,45.25
2022-12-08T09:27:34.282Z,37.65
2022-12-08T09:30:23.892Z,43.60
2022-12-08T09:33:14.182Z,44.53
2022-12-08T09:36:05.112Z,47.47
2022-12-08T09:38:58.160Z,46.72
2022-12-08T09:41:52.136Z,87.47
2022-12-08T09:44:51.942Z,53.10
2022-12-08T09:47:47.403Z,50.35
2022-12-08T09:50:42.452Z,64.55
2022-12-08T09:53:38.233Z,82.93
2022-12-08T09:56:35.836Z,45.95
2022-12-08T09:59:30.961Z,48.65
2022-12-08T10:02:24.850Z,50.17
2022-12-08T10:05:16.491Z,43.17
2022-12-08T10:08:14.128Z,36.10
2022-12-08T10:11:12.564Z,54.83
2022-12-08T10:14:20.244Z,41.53
2022-12-08T10:17:21.517Z,32.50
2022-12-08T10:20:19.282Z,36.25
2022-12-08T10:23:24.403Z,51.45
2022-12-08T10:26:17.184Z,36.08
2022-12-08T10:29:13.916Z,42.92
2022-12-08T10:32:18.339Z,29.30
2022-12-08T10:35:11.091Z,31.45
2022-12-08T10:38:02.932Z,29.35
2022-12-08T10:40:55.874Z,33.97
2022-12-08T10:43:48.855Z,26.80
2022-12-08T10:46:40.103Z,27.45
2022-12-08T10:49:33.657Z,43.55
2022-12-08T10:52:25.479Z,23.42
2022-12-08T10:55:20.822Z,24.23
2022-12-08T10:58:30.909Z,26.60
2022-12-08T11:01:25.046Z,25.80
2022-12-08T11:04:20.544Z,39.65
2022-12-08T11:07:11.897Z,39.80
2022-12-08T11:10:01.435Z,46.10
2022-12-08T11:12:51.757Z,38.63
2022-12-08T11:15:42.338Z,33.40
2022-12-08T11:18:41.505Z,52.28
2022-12-08T11:21:39.148Z,36.38
2022-12-08T11:24:36.027Z,36.85
2022-12-08T11:27:27.048Z,36.40
2022-12-08T11:30:20.073Z,35.63
2022-12-08T11:36:11.189Z,27.80
2022-12-08T11:39:06.079Z,35.28
2022-12-08T11:41:58.326Z,31.17
2022-12-08T11:44:55.764Z,43.13
2022-12-08T11:47:55.981Z,30.17
2022-12-08T11:50:51.668Z,35.33
2022-12-08T11:53:51.629Z,46.33
2022-12-08T11:56:46.738Z,44.30
2022-12-08T11:59:41.903Z,41.55
2022-12-08T12:02:34.665Z,54.50
2022-12-08T12:08:57.890Z,45.58
2022-12-08T12:12:16.852Z,49.25
2022-12-08T12:15:38.059Z,47.63
2022-12-08T12:18:33.221Z,52.20
2022-12-08T12:21:27.741Z,56.22
2022-12-08T12:24:26.755Z,43.92
2022-12-08T12:27:29.338Z,36.58
2022-12-08T12:30:25.497Z,36.30
2022-12-08T12:33:18.285Z,33.55
2022-12-08T12:36:11.088Z,33.17
2022-12-08T12:39:03.336Z,29.95
2022-12-08T12:41:56.025Z,32.10
2022-12-08T12:44:46.683Z,31.05
2022-12-08T12:47:55.830Z,43.55
2022-12-08T12:50:47.908Z,29.92
2022-12-08T12:53:52.314Z,33.08
2022-12-08T12:56:56.732Z,32.08
2022-12-08T13:00:07.780Z,35.90
2022-12-08T13:02:59.795Z,37.67
2022-12-08T13:05:53.524Z,44.75
2022-12-08T13:08:52.575Z,42.50
2022-12-08T13:11:52.955Z,39.90
2022-12-08T13:14:51.844Z,41.90
2022-12-08T13:17:48.534Z,43.03
2022-12-08T13:20:47.428Z,46.05
2022-12-08T13:23:49.323Z,47.17
2022-12-08T13:26:46.189Z,61.83
2022-12-08T13:29:37.462Z,49.80
2022-12-08T13:36:23.945Z,52.08
2022-12-08T13:39:22.986Z,61.00
2022-12-08T13:42:25.035Z,44.75
2022-12-08T13:58:29.536Z,41.65
2022-12-08T14:01:22.874Z,40.67
2022-12-08T14:04:42.477Z,46.15
2022-12-08T14:07:28.802Z,66.85
2022-12-08T14:10:23.417Z,42.97
2022-12-08T14:13:15.185Z,44.03
2022-12-08T14:16:04.574Z,41.47
2022-12-08T14:18:54.001Z,37.17
2022-12-08T14:21:49.725Z,36.47
2022-12-08T14:24:39.127Z,36.15
2022-12-08T14:27:33.753Z,32.65
2022-12-08T14:30:27.377Z,29.92
2022-12-08T14:33:18.094Z,26.40
2022-12-08T14:36:10.546Z,23.77
2022-12-08T14:39:01.362Z,28.80
2022-12-08T14:42:02.235Z,23.92
2022-12-08T14:45:07.079Z,40.05
2022-12-08T14:47:56.442Z,24.65
2022-12-08T14:50:57.180Z,21.98
2022-12-08T14:53:53.273Z,31.40
2022-12-08T14:56:51.936Z,23.75
2022-12-08T14:59:44.325Z,20.70
2022-12-08T15:02:34.553Z,18.65
2022-12-08T15:05:28.194Z,18.17
2022-12-08T15:08:17.732Z,21.40
2022-12-08T15:11:34.898Z,17.15
2022-12-08T15:14:34.050Z,17.30
2022-12-08T15:17:35.817Z,17.00
2022-12-08T15:20:35.857Z,18.65
2022-12-08T15:23:31.543Z,31.83
2022-12-08T15:26:24.446Z,17.67
2022-12-08T15:29:20.617Z,16.23
2022-12-08T15:32:16.091Z,15.43
2022-12-08T15:35:05.946Z,17.38
2022-12-08T15:37:55.425Z,18.55
2022-12-08T15:40:44.772Z,16.63
2022-12-08T15:43:34.441Z,19.17
2022-12-08T15:46:23.783Z,22.00
2022-12-08T15:49:19.838Z,18.92
2022-12-08T15:52:16.194Z,20.42
2022-12-08T15:55:06.416Z,19.00
2022-12-08T16:01:06.670Z,41.42
2022-12-08T16:07:21.456Z,28.65
2022-12-08T16:10:18.560Z,40.00
2022-12-08T16:16:43.516Z,78.75
2022-12-08T16:19:32.860Z,50.15
2022-12-08T16:26:00.554Z,35.10
2022-12-08T16:28:54.070Z,39.53
2022-12-08T16:31:44.200Z,29.33
2022-12-08T16:34:33.750Z,28.60
2022-12-08T16:37:27.613Z,31.83
2022-12-08T16:40:17.285Z,37.83
2022-12-08T16:43:05.525Z,62.28
2022-12-08T16:45:55.116Z,79.00
2022-12-08T16:48:44.858Z,74.20
2022-12-08T16:51:34.246Z,61.13
2022-12-08T16:54:25.087Z,42.00
2022-12-08T16:57:14.889Z,36.17
2022-12-08T17:00:06.278Z,38.30
2022-12-08T17:02:56.383Z,46.13
2022-12-08T17:05:45.993Z,44.55
2022-12-08T17:08:35.316Z,58.72
2022-12-08T17:11:30.132Z,60.40
2022-12-08T17:14:19.956Z,60.70
2022-12-08T17:17:09.548Z,55.72
2022-12-08T17:19:58.855Z,55.83
2022-12-08T17:22:48.721Z,52.45
2022-12-08T17:25:38.083Z,46.47
2022-12-08T17:28:51.885Z,47.83
2022-12-08T17:31:38.719Z,50.55
2022-12-08T17:34:28.796Z,55.53
2022-12-08T17:37:18.903Z,47.60
2022-12-08T17:40:10.236Z,48.20
2022-12-08T17:42:59.533Z,39.70
2022-12-08T17:45:50.958Z,43.85
2022-12-08T17:48:40.277Z,40.05
2022-12-08T17:51:29.805Z,44.10
2022-12-08T17:54:20.312Z,43.67
2022-12-08T17:57:09.990Z,55.33
2022-12-08T17:59:59.468Z,66.65
2022-12-08T18:02:50.460Z,75.53
2022-12-08T18:05:39.789Z,71.90
2022-12-08T18:08:29.215Z,69.07
2022-12-08T18:11:20.991Z,70.63
2022-12-08T18:14:10.970Z,63.53
2022-12-08T18:17:00.438Z,58.88
2022-12-08T18:19:51.475Z,58.72
2022-12-08T18:22:41.876Z,53.78
2022-12-08T18:25:31.233Z,53.03
2022-12-08T18:28:20.522Z,55.42
2022-12-08T18:31:11.465Z,73.53
2022-12-08T18:34:00.743Z,52.53
2022-12-08T18:36:51.417Z,51.75
2022-12-08T18:39:41.057Z,54.67
2022-12-08T18:42:30.707Z,54.22
2022-12-08T18:45:22.683Z,52.33
2022-12-08T18:48:12.530Z,52.60
2022-12-08T18:53:53.685Z,54.22
2022-12-08T18:56:43.123Z,64.50
2022-12-08T18:59:32.626Z,60.58
2022-12-08T19:02:22.275Z,61.30
2022-12-08T19:05:14.210Z,63.47
2022-12-08T19:08:03.776Z,80.40
2022-12-08T19:10:54.552Z,82.88
2022-12-08T19:13:43.888Z,96.57
2022-12-08T19:16:33.313Z,89.57
2022-12-08T19:19:22.735Z,91.97
2022-12-08T19:22:12.384Z,118.55
2022-12-08T19:25:01.742Z,115.53
2022-12-08T19:27:52.492Z,123.05
2022-12-08T19:30:41.919Z,126.93
2022-12-08T19:33:31.391Z,124.70
2022-12-08T19:36:23.539Z,120.20
2022-12-08T19:39:36.975Z,115.53
2022-12-08T19:42:43.888Z,105.03
2022-12-08T19:45:37.706Z,114.65
2022-12-08T19:48:27.457Z,106.43
2022-12-08T19:51:16.791Z,117.20
2022-12-08T19:54:06.354Z,119.05
2022-12-08T19:56:55.633Z,111.90
2022-12-08T19:59:45.128Z,119.20
2022-12-08T20:02:36.668Z,127.30
2022-12-08T20:05:26.374Z,122.18
2022-12-08T20:08:16.165Z,135.02
2022-12-08T20:11:05.867Z,129.80
2022-12-08T20:13:55.257Z,119.72
2022-12-08T20:16:44.682Z,115.82
2022-12-08T20:19:35.413Z,109.45
2022-12-08T20:22:24.858Z,151.98
2022-12-08T20:25:15.016Z,134.95
2022-12-08T20:28:04.901Z,130.50
2022-12-08T20:30:54.322Z,111.82
2022-12-08T20:33:43.847Z,101.90
2022-12-08T20:36:34.614Z,111.78
2022-12-08T20:39:24.024Z,102.60
2022-12-08T20:42:14.854Z,102.57
2022-12-08T20:45:06.647Z,89.55
2022-12-08T20:47:56.254Z,79.90
2022-12-08T20:50:45.897Z,83.85
2022-12-08T20:53:36.871Z,79.47
2022-12-08T20:56:27.418Z,77.20
2022-12-08T20:59:18.369Z,80.72
2022-12-08T21:02:08.119Z,64.63
2022-12-08T21:04:57.687Z,68.68
2022-12-08T21:07:47.736Z,74.93
2022-12-08T21:10:43.666Z,68.22
2022-12-08T21:13:33.891Z,72.82
2022-12-08T21:16:23.398Z,83.30
2022-12-08T21:19:13.669Z,75.47
2022-12-08T21:22:03.427Z,87.70
2022-12-08T21:24:53.265Z,88.88
2022-12-08T21:27:44.053Z,92.63
2022-12-08T21:30:33.453Z,96.25
2022-12-08T21:33:23.276Z,93.18
2022-12-08T21:36:15.573Z,93.90
2022-12-08T21:39:11.303Z,79.88
2022-12-08T21:42:21.484Z,90.72
2022-12-08T21:45:16.320Z,99.88
2022-12-08T21:48:11.493Z,117.93
2022-12-08T21:51:06.626Z,90.60
2022-12-08T21:53:56.344Z,84.78
2022-12-08T21:56:46.321Z,69.07
2022-12-08T21:59:35.987Z,80.45
2022-12-08T22:02:26.906Z,94.93
2022-12-08T22:05:18.425Z,81.40
2022-12-08T22:08:08.183Z,74.78
2022-12-08T22:10:57.636Z,60.20
2022-12-08T22:13:47.042Z,62.95
2022-12-08T22:16:36.572Z,67.03
2022-12-08T22:19:27.798Z,59.17
2022-12-08T22:22:17.309Z,67.18
2022-12-08T22:25:11.065Z,68.03
2022-12-08T22:28:00.438Z,66.70
2022-12-08T22:30:49.940Z,69.93
2022-12-08T22:33:40.312Z,69.10
2022-12-08T22:36:31.031Z,67.07
2022-12-08T22:39:20.561Z,80.75
2022-12-08T22:42:10.003Z,99.95
2022-12-08T22:44:59.415Z,82.25
2022-12-08T22:47:48.703Z,80.90
2022-12-08T22:50:38.271Z,86.32
2022-12-08T22:53:29.338Z,84.45
2022-12-08T22:56:19.952Z,109.95
2022-12-08T22:59:09.276Z,86.10
2022-12-08T23:01:58.575Z,90.25
2022-12-08T23:04:48.670Z,90.97
2022-12-08T23:07:38.469Z,98.20
2022-12-08T23:10:29.926Z,103.93
2022-12-08T23:13:20.162Z,146.45
2022-12-08T23:16:10.971Z,137.05
2022-12-08T23:19:00.979Z,99.95
2022-12-08T23:21:50.430Z,110.72
2022-12-08T23:24:40.006Z,98.43
2022-12-08T23:27:30.836Z,91.13
2022-12-08T23:30:20.368Z,90.15
2022-12-08T23:33:09.932Z,94.95
2022-12-08T23:35:59.683Z,83.47
2022-12-08T23:38:49.217Z,88.13
2022-12-08T23:41:38.709Z,96.95
2022-12-08T23:44:29.615Z,107.20
2022-12-08T23:47:19.265Z,129.75
2022-12-08T23:50:10.872Z,130.75
2022-12-08T23:53:00.704Z,124.20
2022-12-08T23:55:50.251Z,127.20
2022-12-08T23:58:40.602Z,117.43
